sensor_id;sensor_type;location;lat;lon;timestamp;P1;durP1;ratioP1;P2;durP2;ratioP2
51636;SDS011;37713;53.254;6.460;2023-12-28T00:00:55;7.50;;;4.32;;
51636;SDS011;37713;53.254;6.460;2023-12-28T00:03:21;9.85;;;3.90;;
51636;SDS011;37713;53.254;6.460;2023-12-28T00:05:47;8.52;;;4.47;;
51636;SDS011;37713;53.254;6.460;2023-12-28T00:08:12;12.10;;;4.75;;
51636;SDS011;37713;53.254;6.460;2023-12-28T00:10:38;11.70;;;4.32;;
51636;SDS011;37713;53.254;6.460;2023-12-28T00:13:04;9.23;;;4.25;;
51636;SDS011;37713;53.254;6.460;2023-12-28T00:15:30;11.45;;;4.70;;
51636;SDS011;37713;53.254;6.460;2023-12-28T00:17:56;8.48;;;3.88;;
51636;SDS011;37713;53.254;6.460;2023-12-28T00:20:21;8.80;;;4.10;;
51636;SDS011;37713;53.254;6.460;2023-12-28T00:22:47;10.23;;;4.40;;
51636;SDS011;37713;53.254;6.460;2023-12-28T00:25:13;9.55;;;3.75;;
51636;SDS011;37713;53.254;6.460;2023-12-28T00:27:39;8.88;;;4.40;;
51636;SDS011;37713;53.254;6.460;2023-12-28T00:30:05;8.02;;;4.00;;
51636;SDS011;37713;53.254;6.460;2023-12-28T00:32:32;10.18;;;4.00;;
51636;SDS011;37713;53.254;6.460;2023-12-28T00:34:57;7.57;;;3.72;;
51636;SDS011;37713;53.254;6.460;2023-12-28T00:37:26;8.25;;;3.78;;
51636;SDS011;37713;53.254;6.460;2023-12-28T00:39:52;10.10;;;3.75;;
51636;SDS011;37713;53.254;6.460;2023-12-28T00:42:18;11.25;;;3.72;;
51636;SDS011;37713;53.254;6.460;2023-12-28T00:44:44;8.90;;;3.80;;
51636;SDS011;37713;53.254;6.460;2023-12-28T00:47:10;11.60;;;3.78;;
51636;SDS011;37713;53.254;6.460;2023-12-28T00:49:36;10.00;;;3.90;;
51636;SDS011;37713;53.254;6.460;2023-12-28T00:52:02;9.65;;;3.75;;
51636;SDS011;37713;53.254;6.460;2023-12-28T00:54:28;14.27;;;4.18;;
51636;SDS011;37713;53.254;6.460;2023-12-28T00:56:54;9.00;;;3.30;;
51636;SDS011;37713;53.254;6.460;2023-12-28T00:59:19;10.88;;;3.50;;
51636;SDS011;37713;53.254;6.460;2023-12-28T01:01:45;12.10;;;3.83;;
51636;SDS011;37713;53.254;6.460;2023-12-28T01:04:11;13.05;;;3.85;;
51636;SDS011;37713;53.254;6.460;2023-12-28T01:06:37;10.25;;;3.20;;
51636;SDS011;37713;53.254;6.460;2023-12-28T01:09:02;12.95;;;3.08;;
51636;SDS011;37713;53.254;6.460;2023-12-28T01:11:28;13.95;;;3.70;;
51636;SDS011;37713;53.254;6.460;2023-12-28T01:13:54;16.77;;;3.40;;
51636;SDS011;37713;53.254;6.460;2023-12-28T01:16:22;12.88;;;2.92;;
51636;SDS011;37713;53.254;6.460;2023-12-28T01:18:48;15.63;;;3.35;;
51636;SDS011;37713;53.254;6.460;2023-12-28T01:21:14;16.55;;;3.35;;
51636;SDS011;37713;53.254;6.460;2023-12-28T01:23:40;18.17;;;3.85;;
51636;SDS011;37713;53.254;6.460;2023-12-28T01:26:05;14.60;;;3.85;;
51636;SDS011;37713;53.254;6.460;2023-12-28T01:28:37;18.45;;;4.00;;
51636;SDS011;37713;53.254;6.460;2023-12-28T01:31:04;12.85;;;3.08;;
51636;SDS011;37713;53.254;6.460;2023-12-28T01:33:30;13.70;;;3.00;;
51636;SDS011;37713;53.254;6.460;2023-12-28T01:35:56;12.13;;;2.83;;
51636;SDS011;37713;53.254;6.460;2023-12-28T01:38:22;16.25;;;2.97;;
51636;SDS011;37713;53.254;6.460;2023-12-28T01:40:48;17.58;;;3.08;;
51636;SDS011;37713;53.254;6.460;2023-12-28T01:43:13;14.75;;;3.33;;
51636;SDS011;37713;53.254;6.460;2023-12-28T01:45:39;14.43;;;2.90;;
51636;SDS011;37713;53.254;6.460;2023-12-28T01:48:05;14.68;;;3.08;;
51636;SDS011;37713;53.254;6.460;2023-12-28T01:50:31;21.40;;;3.67;;
51636;SDS011;37713;53.254;6.460;2023-12-28T01:52:58;14.43;;;3.17;;
51636;SDS011;37713;53.254;6.460;2023-12-28T01:55:26;19.58;;;3.63;;
51636;SDS011;37713;53.254;6.460;2023-12-28T01:57:52;17.15;;;3.25;;
51636;SDS011;37713;53.254;6.460;2023-12-28T02:00:21;15.43;;;3.40;;
51636;SDS011;37713;53.254;6.460;2023-12-28T02:02:47;16.98;;;3.58;;
51636;SDS011;37713;53.254;6.460;2023-12-28T02:05:13;17.48;;;3.35;;
51636;SDS011;37713;53.254;6.460;2023-12-28T02:07:40;18.60;;;3.25;;
51636;SDS011;37713;53.254;6.460;2023-12-28T02:10:06;16.02;;;3.40;;
51636;SDS011;37713;53.254;6.460;2023-12-28T02:12:32;16.40;;;3.10;;
51636;SDS011;37713;53.254;6.460;2023-12-28T02:14:59;14.90;;;3.83;;
51636;SDS011;37713;53.254;6.460;2023-12-28T02:22:23;19.00;;;3.67;;
51636;SDS011;37713;53.254;6.460;2023-12-28T02:25:03;13.73;;;3.00;;
51636;SDS011;37713;53.254;6.460;2023-12-28T02:30:06;15.95;;;3.22;;
51636;SDS011;37713;53.254;6.460;2023-12-28T02:35:06;16.20;;;3.17;;
51636;SDS011;37713;53.254;6.460;2023-12-28T02:37:39;14.38;;;3.20;;
51636;SDS011;37713;53.254;6.460;2023-12-28T02:40:05;15.13;;;3.60;;
51636;SDS011;37713;53.254;6.460;2023-12-28T02:42:32;13.15;;;3.40;;
51636;SDS011;37713;53.254;6.460;2023-12-28T02:44:59;13.98;;;3.88;;
51636;SDS011;37713;53.254;6.460;2023-12-28T02:47:28;15.15;;;3.65;;
51636;SDS011;37713;53.254;6.460;2023-12-28T02:49:54;13.25;;;3.55;;
51636;SDS011;37713;53.254;6.460;2023-12-28T02:52:19;17.52;;;3.63;;
51636;SDS011;37713;53.254;6.460;2023-12-28T02:54:45;13.60;;;3.60;;
51636;SDS011;37713;53.254;6.460;2023-12-28T02:57:11;14.55;;;3.70;;
51636;SDS011;37713;53.254;6.460;2023-12-28T02:59:37;12.75;;;3.20;;
51636;SDS011;37713;53.254;6.460;2023-12-28T03:02:03;13.30;;;3.92;;
51636;SDS011;37713;53.254;6.460;2023-12-28T03:04:28;15.82;;;4.30;;
51636;SDS011;37713;53.254;6.460;2023-12-28T03:06:54;15.07;;;3.50;;
51636;SDS011;37713;53.254;6.460;2023-12-28T03:09:20;13.80;;;3.42;;
51636;SDS011;37713;53.254;6.460;2023-12-28T03:11:46;15.60;;;3.78;;
51636;SDS011;37713;53.254;6.460;2023-12-28T03:14:12;14.40;;;3.72;;
51636;SDS011;37713;53.254;6.460;2023-12-28T03:16:38;11.57;;;3.25;;
51636;SDS011;37713;53.254;6.460;2023-12-28T03:19:04;14.82;;;3.92;;
51636;SDS011;37713;53.254;6.460;2023-12-28T03:21:29;17.58;;;3.67;;
51636;SDS011;37713;53.254;6.460;2023-12-28T03:23:55;14.52;;;3.45;;
51636;SDS011;37713;53.254;6.460;2023-12-28T03:26:22;13.80;;;3.05;;
51636;SDS011;37713;53.254;6.460;2023-12-28T03:28:47;12.30;;;3.00;;
51636;SDS011;37713;53.254;6.460;2023-12-28T03:31:13;16.15;;;3.13;;
51636;SDS011;37713;53.254;6.460;2023-12-28T03:33:39;12.15;;;3.30;;
51636;SDS011;37713;53.254;6.460;2023-12-28T03:36:05;18.08;;;3.67;;
51636;SDS011;37713;53.254;6.460;2023-12-28T03:38:31;13.88;;;3.40;;
51636;SDS011;37713;53.254;6.460;2023-12-28T03:40:56;11.48;;;3.08;;
51636;SDS011;37713;53.254;6.460;2023-12-28T03:43:23;13.60;;;2.85;;
51636;SDS011;37713;53.254;6.460;2023-12-28T03:45:49;12.60;;;3.25;;
51636;SDS011;37713;53.254;6.460;2023-12-28T03:48:15;17.40;;;3.10;;
51636;SDS011;37713;53.254;6.460;2023-12-28T03:50:40;14.05;;;2.85;;
51636;SDS011;37713;53.254;6.460;2023-12-28T03:53:06;11.52;;;2.80;;
51636;SDS011;37713;53.254;6.460;2023-12-28T03:55:32;12.75;;;3.00;;
51636;SDS011;37713;53.254;6.460;2023-12-28T03:57:58;13.43;;;2.63;;
51636;SDS011;37713;53.254;6.460;2023-12-28T04:00:23;16.50;;;3.45;;
51636;SDS011;37713;53.254;6.460;2023-12-28T04:02:49;10.70;;;3.22;;
51636;SDS011;37713;53.254;6.460;2023-12-28T04:05:15;11.88;;;2.72;;
51636;SDS011;37713;53.254;6.460;2023-12-28T04:07:41;11.63;;;3.13;;
51636;SDS011;37713;53.254;6.460;2023-12-28T04:10:08;12.80;;;3.08;;
51636;SDS011;37713;53.254;6.460;2023-12-28T04:12:34;14.65;;;3.13;;
51636;SDS011;37713;53.254;6.460;2023-12-28T04:15:00;15.00;;;2.95;;
51636;SDS011;37713;53.254;6.460;2023-12-28T04:17:26;16.92;;;3.70;;
51636;SDS011;37713;53.254;6.460;2023-12-28T04:19:52;10.05;;;2.90;;
51636;SDS011;37713;53.254;6.460;2023-12-28T04:22:17;13.55;;;3.60;;
51636;SDS011;37713;53.254;6.460;2023-12-28T04:24:43;11.30;;;2.70;;
51636;SDS011;37713;53.254;6.460;2023-12-28T04:27:09;14.48;;;2.83;;
51636;SDS011;37713;53.254;6.460;2023-12-28T04:29:35;14.90;;;3.40;;
51636;SDS011;37713;53.254;6.460;2023-12-28T04:32:01;16.83;;;3.63;;
51636;SDS011;37713;53.254;6.460;2023-12-28T04:34:26;14.57;;;3.53;;
51636;SDS011;37713;53.254;6.460;2023-12-28T04:36:52;12.20;;;3.22;;
51636;SDS011;37713;53.254;6.460;2023-12-28T04:39:18;18.95;;;3.20;;
51636;SDS011;37713;53.254;6.460;2023-12-28T04:41:43;12.60;;;2.65;;
51636;SDS011;37713;53.254;6.460;2023-12-28T04:44:09;12.40;;;2.72;;
51636;SDS011;37713;53.254;6.460;2023-12-28T04:46:38;14.27;;;2.80;;
51636;SDS011;37713;53.254;6.460;2023-12-28T04:49:10;17.13;;;2.97;;
51636;SDS011;37713;53.254;6.460;2023-12-28T04:51:41;11.23;;;2.58;;
51636;SDS011;37713;53.254;6.460;2023-12-28T04:54:08;14.38;;;2.60;;
51636;SDS011;37713;53.254;6.460;2023-12-28T04:56:33;14.18;;;2.72;;
51636;SDS011;37713;53.254;6.460;2023-12-28T04:58:59;13.95;;;2.78;;
51636;SDS011;37713;53.254;6.460;2023-12-28T05:01:25;12.48;;;3.20;;
51636;SDS011;37713;53.254;6.460;2023-12-28T05:03:51;21.13;;;2.75;;
51636;SDS011;37713;53.254;6.460;2023-12-28T05:06:17;17.02;;;3.17;;
51636;SDS011;37713;53.254;6.460;2023-12-28T05:08:43;23.25;;;3.15;;
51636;SDS011;37713;53.254;6.460;2023-12-28T05:11:09;17.67;;;2.80;;
51636;SDS011;37713;53.254;6.460;2023-12-28T05:13:36;14.90;;;2.83;;
51636;SDS011;37713;53.254;6.460;2023-12-28T05:16:02;18.80;;;3.03;;
51636;SDS011;37713;53.254;6.460;2023-12-28T05:18:28;21.23;;;3.20;;
51636;SDS011;37713;53.254;6.460;2023-12-28T05:20:54;12.90;;;2.42;;
51636;SDS011;37713;53.254;6.460;2023-12-28T05:23:20;16.20;;;3.13;;
51636;SDS011;37713;53.254;6.460;2023-12-28T05:25:46;18.08;;;2.97;;
51636;SDS011;37713;53.254;6.460;2023-12-28T05:28:13;16.38;;;3.38;;
51636;SDS011;37713;53.254;6.460;2023-12-28T05:30:39;14.63;;;2.50;;
51636;SDS011;37713;53.254;6.460;2023-12-28T05:33:04;17.75;;;2.60;;
51636;SDS011;37713;53.254;6.460;2023-12-28T05:35:30;15.57;;;3.33;;
51636;SDS011;37713;53.254;6.460;2023-12-28T05:37:56;19.33;;;3.25;;
51636;SDS011;37713;53.254;6.460;2023-12-28T05:40:22;14.05;;;2.70;;
51636;SDS011;37713;53.254;6.460;2023-12-28T05:42:47;21.35;;;3.38;;
51636;SDS011;37713;53.254;6.460;2023-12-28T05:45:13;17.05;;;2.88;;
51636;SDS011;37713;53.254;6.460;2023-12-28T05:47:39;20.67;;;3.80;;
51636;SDS011;37713;53.254;6.460;2023-12-28T05:50:05;17.30;;;3.47;;
51636;SDS011;37713;53.254;6.460;2023-12-28T05:52:31;16.85;;;3.17;;
51636;SDS011;37713;53.254;6.460;2023-12-28T05:54:57;19.85;;;3.03;;
51636;SDS011;37713;53.254;6.460;2023-12-28T05:57:22;18.35;;;2.95;;
51636;SDS011;37713;53.254;6.460;2023-12-28T05:59:48;18.33;;;3.45;;
51636;SDS011;37713;53.254;6.460;2023-12-28T06:02:14;18.60;;;2.75;;
51636;SDS011;37713;53.254;6.460;2023-12-28T06:04:40;18.77;;;3.42;;
51636;SDS011;37713;53.254;6.460;2023-12-28T06:07:06;19.73;;;3.10;;
51636;SDS011;37713;53.254;6.460;2023-12-28T06:09:31;19.88;;;2.70;;
51636;SDS011;37713;53.254;6.460;2023-12-28T06:11:57;22.23;;;3.15;;
51636;SDS011;37713;53.254;6.460;2023-12-28T06:14:23;17.50;;;3.33;;
51636;SDS011;37713;53.254;6.460;2023-12-28T06:16:49;18.75;;;2.40;;
51636;SDS011;37713;53.254;6.460;2023-12-28T06:19:15;17.20;;;3.55;;
51636;SDS011;37713;53.254;6.460;2023-12-28T06:21:41;21.23;;;3.00;;
51636;SDS011;37713;53.254;6.460;2023-12-28T06:24:10;20.02;;;3.20;;
51636;SDS011;37713;53.254;6.460;2023-12-28T06:26:38;16.50;;;2.85;;
51636;SDS011;37713;53.254;6.460;2023-12-28T06:29:11;22.45;;;3.30;;
51636;SDS011;37713;53.254;6.460;2023-12-28T06:31:36;19.10;;;3.15;;
51636;SDS011;37713;53.254;6.460;2023-12-28T06:34:03;18.38;;;3.17;;
51636;SDS011;37713;53.254;6.460;2023-12-28T06:36:29;22.48;;;3.55;;
51636;SDS011;37713;53.254;6.460;2023-12-28T06:38:55;20.65;;;3.05;;
51636;SDS011;37713;53.254;6.460;2023-12-28T06:41:21;18.67;;;3.13;;
51636;SDS011;37713;53.254;6.460;2023-12-28T06:43:47;18.48;;;2.88;;
51636;SDS011;37713;53.254;6.460;2023-12-28T06:46:16;18.63;;;3.63;;
51636;SDS011;37713;53.254;6.460;2023-12-28T06:48:43;26.27;;;5.38;;
51636;SDS011;37713;53.254;6.460;2023-12-28T06:51:09;18.95;;;3.00;;
51636;SDS011;37713;53.254;6.460;2023-12-28T06:53:41;23.45;;;3.53;;
51636;SDS011;37713;53.254;6.460;2023-12-28T06:56:06;22.67;;;2.88;;
51636;SDS011;37713;53.254;6.460;2023-12-28T06:58:32;22.17;;;3.85;;
51636;SDS011;37713;53.254;6.460;2023-12-28T07:00:58;21.27;;;3.20;;
51636;SDS011;37713;53.254;6.460;2023-12-28T07:03:24;18.83;;;3.58;;
51636;SDS011;37713;53.254;6.460;2023-12-28T07:05:55;14.55;;;3.42;;
51636;SDS011;37713;53.254;6.460;2023-12-28T07:08:21;20.52;;;3.53;;
51636;SDS011;37713;53.254;6.460;2023-12-28T07:10:47;18.23;;;3.55;;
51636;SDS011;37713;53.254;6.460;2023-12-28T07:13:13;24.50;;;3.75;;
51636;SDS011;37713;53.254;6.460;2023-12-28T07:15:39;21.50;;;4.43;;
51636;SDS011;37713;53.254;6.460;2023-12-28T07:18:06;29.17;;;3.47;;
51636;SDS011;37713;53.254;6.460;2023-12-28T07:20:32;22.85;;;3.35;;
51636;SDS011;37713;53.254;6.460;2023-12-28T07:22:58;20.60;;;3.25;;
51636;SDS011;37713;53.254;6.460;2023-12-28T07:25:24;22.25;;;3.35;;
51636;SDS011;37713;53.254;6.460;2023-12-28T07:27:50;26.13;;;3.97;;
51636;SDS011;37713;53.254;6.460;2023-12-28T07:30:16;22.95;;;3.75;;
51636;SDS011;37713;53.254;6.460;2023-12-28T07:32:43;22.05;;;3.78;;
51636;SDS011;37713;53.254;6.460;2023-12-28T07:35:10;24.08;;;4.18;;
51636;SDS011;37713;53.254;6.460;2023-12-28T07:37:36;26.27;;;4.25;;
51636;SDS011;37713;53.254;6.460;2023-12-28T07:40:02;19.77;;;3.80;;
51636;SDS011;37713;53.254;6.460;2023-12-28T07:42:29;23.10;;;3.53;;
51636;SDS011;37713;53.254;6.460;2023-12-28T07:44:55;18.45;;;3.63;;
51636;SDS011;37713;53.254;6.460;2023-12-28T07:47:21;24.50;;;4.32;;
51636;SDS011;37713;53.254;6.460;2023-12-28T07:49:47;23.30;;;4.22;;
51636;SDS011;37713;53.254;6.460;2023-12-28T07:52:14;30.25;;;4.90;;
51636;SDS011;37713;53.254;6.460;2023-12-28T07:54:40;21.85;;;4.25;;
51636;SDS011;37713;53.254;6.460;2023-12-28T07:57:05;25.70;;;3.70;;
51636;SDS011;37713;53.254;6.460;2023-12-28T07:59:31;25.42;;;4.15;;
51636;SDS011;37713;53.254;6.460;2023-12-28T08:01:58;24.13;;;3.72;;
51636;SDS011;37713;53.254;6.460;2023-12-28T08:04:24;36.25;;;4.95;;
51636;SDS011;37713;53.254;6.460;2023-12-28T08:06:49;27.20;;;4.15;;
51636;SDS011;37713;53.254;6.460;2023-12-28T08:09:15;25.65;;;4.10;;
51636;SDS011;37713;53.254;6.460;2023-12-28T08:11:41;28.92;;;4.15;;
51636;SDS011;37713;53.254;6.460;2023-12-28T08:14:07;27.52;;;4.45;;
51636;SDS011;37713;53.254;6.460;2023-12-28T08:16:33;29.65;;;4.40;;
51636;SDS011;37713;53.254;6.460;2023-12-28T08:19:00;27.20;;;4.53;;
51636;SDS011;37713;53.254;6.460;2023-12-28T08:21:29;29.98;;;3.92;;
51636;SDS011;37713;53.254;6.460;2023-12-28T08:23:56;27.02;;;4.43;;
51636;SDS011;37713;53.254;6.460;2023-12-28T08:26:22;30.45;;;4.13;;
51636;SDS011;37713;53.254;6.460;2023-12-28T08:28:51;27.40;;;4.20;;
51636;SDS011;37713;53.254;6.460;2023-12-28T08:31:17;28.27;;;4.88;;
51636;SDS011;37713;53.254;6.460;2023-12-28T08:33:43;25.88;;;4.57;;
51636;SDS011;37713;53.254;6.460;2023-12-28T08:36:09;25.20;;;4.93;;
51636;SDS011;37713;53.254;6.460;2023-12-28T08:38:39;30.90;;;5.43;;
51636;SDS011;37713;53.254;6.460;2023-12-28T08:41:05;26.50;;;5.45;;
51636;SDS011;37713;53.254;6.460;2023-12-28T08:43:34;24.35;;;4.50;;
51636;SDS011;37713;53.254;6.460;2023-12-28T08:46:01;27.73;;;3.80;;
51636;SDS011;37713;53.254;6.460;2023-12-28T08:48:27;32.45;;;5.10;;
51636;SDS011;37713;53.254;6.460;2023-12-28T08:50:53;28.38;;;5.00;;
51636;SDS011;37713;53.254;6.460;2023-12-28T08:53:19;35.35;;;5.32;;
51636;SDS011;37713;53.254;6.460;2023-12-28T08:55:44;35.80;;;5.22;;
51636;SDS011;37713;53.254;6.460;2023-12-28T08:58:10;28.75;;;5.18;;
51636;SDS011;37713;53.254;6.460;2023-12-28T09:00:36;27.35;;;4.50;;
51636;SDS011;37713;53.254;6.460;2023-12-28T09:03:03;31.33;;;5.03;;
51636;SDS011;37713;53.254;6.460;2023-12-28T09:05:29;27.98;;;4.10;;
51636;SDS011;37713;53.254;6.460;2023-12-28T09:07:54;32.58;;;5.32;;
51636;SDS011;37713;53.254;6.460;2023-12-28T09:10:20;34.00;;;5.85;;
51636;SDS011;37713;53.254;6.460;2023-12-28T09:12:46;30.20;;;4.85;;
51636;SDS011;37713;53.254;6.460;2023-12-28T09:15:12;27.38;;;4.53;;
51636;SDS011;37713;53.254;6.460;2023-12-28T09:17:38;26.77;;;4.53;;
51636;SDS011;37713;53.254;6.460;2023-12-28T09:20:04;30.00;;;4.72;;
51636;SDS011;37713;53.254;6.460;2023-12-28T09:22:31;27.92;;;4.90;;
51636;SDS011;37713;53.254;6.460;2023-12-28T09:24:57;33.33;;;4.90;;
51636;SDS011;37713;53.254;6.460;2023-12-28T09:27:23;32.25;;;5.25;;
51636;SDS011;37713;53.254;6.460;2023-12-28T09:29:49;30.42;;;4.68;;
51636;SDS011;37713;53.254;6.460;2023-12-28T09:32:15;31.33;;;4.93;;
51636;SDS011;37713;53.254;6.460;2023-12-28T09:34:42;33.35;;;5.38;;
51636;SDS011;37713;53.254;6.460;2023-12-28T09:37:07;31.30;;;4.68;;
51636;SDS011;37713;53.254;6.460;2023-12-28T09:39:33;32.17;;;4.68;;
51636;SDS011;37713;53.254;6.460;2023-12-28T09:42:00;28.80;;;4.55;;
51636;SDS011;37713;53.254;6.460;2023-12-28T09:44:32;31.20;;;4.70;;
51636;SDS011;37713;53.254;6.460;2023-12-28T09:47:03;30.65;;;4.45;;
51636;SDS011;37713;53.254;6.460;2023-12-28T09:49:31;27.45;;;3.90;;
51636;SDS011;37713;53.254;6.460;2023-12-28T09:51:58;27.30;;;4.15;;
51636;SDS011;37713;53.254;6.460;2023-12-28T09:54:25;29.75;;;4.38;;
51636;SDS011;37713;53.254;6.460;2023-12-28T09:56:51;24.88;;;4.57;;
51636;SDS011;37713;53.254;6.460;2023-12-28T09:59:17;36.63;;;5.57;;
51636;SDS011;37713;53.254;6.460;2023-12-28T10:01:45;32.00;;;5.03;;
51636;SDS011;37713;53.254;6.460;2023-12-28T10:04:13;30.83;;;4.63;;
51636;SDS011;37713;53.254;6.460;2023-12-28T10:06:40;30.80;;;5.07;;
51636;SDS011;37713;53.254;6.460;2023-12-28T10:09:06;26.45;;;4.00;;
51636;SDS011;37713;53.254;6.460;2023-12-28T10:11:33;30.00;;;4.55;;
51636;SDS011;37713;53.254;6.460;2023-12-28T10:13:59;27.98;;;4.95;;
51636;SDS011;37713;53.254;6.460;2023-12-28T10:16:25;33.35;;;4.47;;
51636;SDS011;37713;53.254;6.460;2023-12-28T10:18:51;29.33;;;4.00;;
51636;SDS011;37713;53.254;6.460;2023-12-28T10:21:17;31.55;;;4.07;;
51636;SDS011;37713;53.254;6.460;2023-12-28T10:23:43;28.17;;;4.65;;
51636;SDS011;37713;53.254;6.460;2023-12-28T10:26:09;25.52;;;4.43;;
51636;SDS011;37713;53.254;6.460;2023-12-28T10:28:35;28.77;;;4.15;;
51636;SDS011;37713;53.254;6.460;2023-12-28T10:31:03;26.80;;;5.07;;
51636;SDS011;37713;53.254;6.460;2023-12-28T10:33:35;29.83;;;4.95;;
51636;SDS011;37713;53.254;6.460;2023-12-28T10:36:04;26.20;;;4.18;;
51636;SDS011;37713;53.254;6.460;2023-12-28T10:38:35;28.80;;;4.82;;
51636;SDS011;37713;53.254;6.460;2023-12-28T10:41:08;25.23;;;4.10;;
51636;SDS011;37713;53.254;6.460;2023-12-28T10:43:46;22.98;;;3.67;;
51636;SDS011;37713;53.254;6.460;2023-12-28T10:46:26;25.70;;;3.90;;
51636;SDS011;37713;53.254;6.460;2023-12-28T10:48:56;28.92;;;4.28;;
51636;SDS011;37713;53.254;6.460;2023-12-28T10:51:25;23.17;;;4.18;;
51636;SDS011;37713;53.254;6.460;2023-12-28T10:56:50;29.33;;;4.47;;
51636;SDS011;37713;53.254;6.460;2023-12-28T11:00:08;29.00;;;4.15;;
51636;SDS011;37713;53.254;6.460;2023-12-28T11:02:47;26.92;;;4.18;;
51636;SDS011;37713;53.254;6.460;2023-12-28T11:05:19;32.08;;;3.90;;
51636;SDS011;37713;53.254;6.460;2023-12-28T11:07:49;25.88;;;3.83;;
51636;SDS011;37713;53.254;6.460;2023-12-28T11:10:19;26.27;;;3.83;;
51636;SDS011;37713;53.254;6.460;2023-12-28T11:12:48;25.45;;;4.05;;
51636;SDS011;37713;53.254;6.460;2023-12-28T11:17:44;21.38;;;3.63;;
51636;SDS011;37713;53.254;6.460;2023-12-28T11:20:10;20.45;;;3.70;;
51636;SDS011;37713;53.254;6.460;2023-12-28T11:22:37;28.48;;;4.20;;
51636;SDS011;37713;53.254;6.460;2023-12-28T11:25:03;25.45;;;4.28;;
51636;SDS011;37713;53.254;6.460;2023-12-28T11:27:35;18.65;;;3.28;;
51636;SDS011;37713;53.254;6.460;2023-12-28T11:30:05;24.20;;;4.13;;
51636;SDS011;37713;53.254;6.460;2023-12-28T11:32:38;23.80;;;3.90;;
51636;SDS011;37713;53.254;6.460;2023-12-28T11:35:08;25.95;;;4.32;;
51636;SDS011;37713;53.254;6.460;2023-12-28T11:37:36;20.92;;;3.85;;
51636;SDS011;37713;53.254;6.460;2023-12-28T11:40:12;20.08;;;4.60;;
51636;SDS011;37713;53.254;6.460;2023-12-28T11:42:51;25.77;;;3.83;;
51636;SDS011;37713;53.254;6.460;2023-12-28T11:45:19;24.60;;;3.17;;
51636;SDS011;37713;53.254;6.460;2023-12-28T11:50:25;23.98;;;4.05;;
51636;SDS011;37713;53.254;6.460;2023-12-28T11:52:51;29.15;;;4.32;;
51636;SDS011;37713;53.254;6.460;2023-12-28T11:55:20;22.45;;;3.90;;
51636;SDS011;37713;53.254;6.460;2023-12-28T11:57:48;21.85;;;4.05;;
51636;SDS011;37713;53.254;6.460;2023-12-28T12:00:13;25.83;;;4.50;;
51636;SDS011;37713;53.254;6.460;2023-12-28T12:02:43;24.00;;;3.47;;
51636;SDS011;37713;53.254;6.460;2023-12-28T12:05:10;26.48;;;4.13;;
51636;SDS011;37713;53.254;6.460;2023-12-28T12:07:37;27.10;;;4.47;;
51636;SDS011;37713;53.254;6.460;2023-12-28T12:10:03;26.55;;;3.85;;
51636;SDS011;37713;53.254;6.460;2023-12-28T12:12:29;24.20;;;3.70;;
51636;SDS011;37713;53.254;6.460;2023-12-28T12:14:55;25.73;;;4.18;;
51636;SDS011;37713;53.254;6.460;2023-12-28T12:17:21;29.58;;;4.50;;
51636;SDS011;37713;53.254;6.460;2023-12-28T12:19:47;28.38;;;4.28;;
51636;SDS011;37713;53.254;6.460;2023-12-28T12:22:20;26.25;;;4.35;;
51636;SDS011;37713;53.254;6.460;2023-12-28T12:24:47;28.83;;;4.60;;
51636;SDS011;37713;53.254;6.460;2023-12-28T12:27:16;30.20;;;4.82;;
51636;SDS011;37713;53.254;6.460;2023-12-28T12:29:42;30.48;;;4.63;;
51636;SDS011;37713;53.254;6.460;2023-12-28T12:32:08;29.50;;;5.22;;
51636;SDS011;37713;53.254;6.460;2023-12-28T12:34:35;29.50;;;5.18;;
51636;SDS011;37713;53.254;6.460;2023-12-28T12:37:00;32.50;;;5.35;;
51636;SDS011;37713;53.254;6.460;2023-12-28T12:39:26;38.40;;;5.75;;
51636;SDS011;37713;53.254;6.460;2023-12-28T12:41:52;31.00;;;4.32;;
51636;SDS011;37713;53.254;6.460;2023-12-28T12:44:21;28.77;;;5.25;;
51636;SDS011;37713;53.254;6.460;2023-12-28T12:46:48;33.55;;;4.63;;
51636;SDS011;37713;53.254;6.460;2023-12-28T12:49:21;29.13;;;4.30;;
51636;SDS011;37713;53.254;6.460;2023-12-28T12:51:47;31.92;;;5.15;;
51636;SDS011;37713;53.254;6.460;2023-12-28T12:54:16;29.75;;;4.72;;
51636;SDS011;37713;53.254;6.460;2023-12-28T12:56:44;28.90;;;4.50;;
51636;SDS011;37713;53.254;6.460;2023-12-28T12:59:10;31.67;;;5.10;;
51636;SDS011;37713;53.254;6.460;2023-12-28T13:01:42;27.52;;;4.32;;
51636;SDS011;37713;53.254;6.460;2023-12-28T13:04:08;28.65;;;4.68;;
51636;SDS011;37713;53.254;6.460;2023-12-28T13:06:35;26.15;;;4.50;;
51636;SDS011;37713;53.254;6.460;2023-12-28T13:09:01;33.72;;;4.60;;
51636;SDS011;37713;53.254;6.460;2023-12-28T13:11:28;34.67;;;4.78;;
51636;SDS011;37713;53.254;6.460;2023-12-28T13:13:54;21.48;;;4.40;;
51636;SDS011;37713;53.254;6.460;2023-12-28T13:16:20;29.30;;;4.60;;
51636;SDS011;37713;53.254;6.460;2023-12-28T13:18:45;24.70;;;3.88;;
51636;SDS011;37713;53.254;6.460;2023-12-28T13:21:11;23.77;;;4.55;;
51636;SDS011;37713;53.254;6.460;2023-12-28T13:23:38;30.63;;;5.20;;
51636;SDS011;37713;53.254;6.460;2023-12-28T13:26:03;28.75;;;4.85;;
51636;SDS011;37713;53.254;6.460;2023-12-28T13:28:29;22.67;;;4.07;;
51636;SDS011;37713;53.254;6.460;2023-12-28T13:30:55;24.55;;;4.13;;
51636;SDS011;37713;53.254;6.460;2023-12-28T13:33:22;26.23;;;3.90;;
51636;SDS011;37713;53.254;6.460;2023-12-28T13:35:49;25.02;;;3.97;;
51636;SDS011;37713;53.254;6.460;2023-12-28T13:38:16;30.52;;;4.43;;
51636;SDS011;37713;53.254;6.460;2023-12-28T13:40:42;24.85;;;4.10;;
51636;SDS011;37713;53.254;6.460;2023-12-28T13:43:08;28.23;;;3.97;;
51636;SDS011;37713;53.254;6.460;2023-12-28T13:45:35;25.08;;;4.47;;
51636;SDS011;37713;53.254;6.460;2023-12-28T13:48:00;30.60;;;4.97;;
51636;SDS011;37713;53.254;6.460;2023-12-28T13:50:26;26.75;;;4.22;;
51636;SDS011;37713;53.254;6.460;2023-12-28T13:52:53;28.35;;;4.10;;
51636;SDS011;37713;53.254;6.460;2023-12-28T13:55:19;28.08;;;4.47;;
51636;SDS011;37713;53.254;6.460;2023-12-28T13:57:45;23.38;;;3.80;;
51636;SDS011;37713;53.254;6.460;2023-12-28T14:00:11;25.40;;;4.40;;
51636;SDS011;37713;53.254;6.460;2023-12-28T14:02:38;22.73;;;4.18;;
51636;SDS011;37713;53.254;6.460;2023-12-28T14:05:05;22.90;;;3.95;;
51636;SDS011;37713;53.254;6.460;2023-12-28T14:07:31;26.55;;;3.75;;
51636;SDS011;37713;53.254;6.460;2023-12-28T14:09:58;25.95;;;3.97;;
51636;SDS011;37713;53.254;6.460;2023-12-28T14:12:24;25.83;;;3.65;;
51636;SDS011;37713;53.254;6.460;2023-12-28T14:14:49;28.48;;;4.22;;
51636;SDS011;37713;53.254;6.460;2023-12-28T14:17:15;22.30;;;4.25;;
51636;SDS011;37713;53.254;6.460;2023-12-28T14:19:45;26.65;;;4.25;;
51636;SDS011;37713;53.254;6.460;2023-12-28T14:22:14;25.98;;;4.20;;
51636;SDS011;37713;53.254;6.460;2023-12-28T14:24:40;28.85;;;5.30;;
51636;SDS011;37713;53.254;6.460;2023-12-28T14:27:06;26.83;;;4.10;;
51636;SDS011;37713;53.254;6.460;2023-12-28T14:29:33;20.20;;;3.78;;
51636;SDS011;37713;53.254;6.460;2023-12-28T14:31:59;24.42;;;4.25;;
51636;SDS011;37713;53.254;6.460;2023-12-28T14:34:25;25.85;;;4.00;;
51636;SDS011;37713;53.254;6.460;2023-12-28T14:36:52;24.58;;;4.07;;
51636;SDS011;37713;53.254;6.460;2023-12-28T14:39:18;28.30;;;4.65;;
51636;SDS011;37713;53.254;6.460;2023-12-28T14:41:44;22.17;;;4.22;;
51636;SDS011;37713;53.254;6.460;2023-12-28T14:44:10;19.33;;;3.47;;
51636;SDS011;37713;53.254;6.460;2023-12-28T14:46:36;26.88;;;4.50;;
51636;SDS011;37713;53.254;6.460;2023-12-28T14:49:03;24.23;;;4.00;;
51636;SDS011;37713;53.254;6.460;2023-12-28T14:51:29;25.48;;;4.80;;